Etusivu
METAR-TAF:

METAR-TAF

Lentoasemat :

El Salvador, El Salvador

Leveyspiiri: 13-26N, Pituuspiiri: 089-03W, korkeus merenpinnasta: 25 m

Tämänhetkinen sää

Tämä raportti tehtiin 12 minuuttia sitten, kello 19.50 UTC
Tuuli 11 kn etelästä/lounaasta, vaihdellen etelän ja lounaan välillä
Lämpötila 31°C
Kosteus 46%
Ilmanpaine 1012 hPa
Näkyvyys 10 km tai enemmän
ei pilviä alle 1500 m:ssä eikä cumulonimbus-pilviä

METAR: MSLP 241950Z 20011KT 170V230 CAVOK 31/18 Q1011 A2987 NOSIG

Aika: 14:02 (20:02 UTC)

Sääennuste

Tämä raportti tehtiin 4 tuntia ja 37 minuuttia sitten, kello 15.25 UTC
Ennuste voimassa 24. päivästä klo 18 UTC - 25. päivään klo 18 UTC
Tuuli 10 kn lounaasta
Näkyvyys 10 km tai enemmän
ei pilviä alle 1500 m:ssä eikä cumulonimbus-pilviä
From 25. päivästä klo 0000 UTC
Tuuli 8 kn pohjoisen/luoteesta
From 25. päivästä klo 0600 UTC
Tuuli 8 kn koillisesta

TAF: MSLP 241525Z 2418/2518 22010KT CAVOK TX36/2418Z TN20/2510Z FM250000 33008KT FM250600 04008KT

Säähavainnot ja -ennusteet yli 4000 lentoasemalta (METAR- ja TAF-raportit).

Käytössä olevat sääasemat on merkitty karttaan keltaisilla ja punaisilla pisteillä.

Aseta hiiri pisteen päälle nähdäksesi sääaseman nimen.

Klikkaa sitten nähdäksesi säähavainnot ja -ennusteet.

Kartan vaihtaminen: klikkaa mustalla rastilla varustettuja vihreitä pisteitä, niin voit zoomata sisään; viivalla varustettua vihreää pistettä, niin voit zoomata ulos tai vihreitä nuolia, niin pääset viereisille kartoille.


METAR-TAF: